Time;durP1;ratioP1;P1;durP2;ratioP2;P2;SDS_P1;SDS_P2;PMS_P1;PMS_P2;Temp;Humidity;BMP_temperature;BMP_pressure;BME280_temperature;BME280_humidity;BME280_pressure;Samples;Min_cycle;Max_cycle;Signal;HPM_P1;HPM_P2
2024/01/24 00:00:05;;;;;;;19.40;7.90;;;;;;;2.69;86.26;100851.63;106466;1281;25371;-85
2024/01/24 00:02:40;;;;;;;18.90;7.40;;;;;;;2.69;86.09;100847.98;107016;1276;22625;-84
2024/01/24 00:05:10;;;;;;;17.20;7.50;;;;;;;2.69;86.18;100848.65;106899;1271;24208;-83
2024/01/24 00:07:39;;;;;;;17.70;7.50;;;;;;;2.70;86.16;100851.64;107163;1274;26012;-83
2024/01/24 00:10:07;;;;;;;17.10;6.70;;;;;;;2.70;86.09;100853.56;106903;1278;22533;-85
2024/01/24 00:12:34;;;;;;;18.00;7.40;;;;;;;2.68;86.02;100844.98;106742;1279;24406;-83
2024/01/24 00:15:02;;;;;;;17.30;6.40;;;;;;;2.61;85.94;100838.17;106778;1279;25500;-86
2024/01/24 00:17:29;;;;;;;15.90;6.10;;;;;;;2.54;86.12;100846.30;106646;1281;26171;-82
2024/01/24 00:19:57;;;;;;;17.50;7.70;;;;;;;2.54;86.18;100851.67;106699;1277;24238;-82
2024/01/24 00:22:24;;;;;;;16.00;6.40;;;;;;;2.53;86.34;100848.18;106095;1287;22618;-83
2024/01/24 00:24:51;;;;;;;14.20;6.40;;;;;;;2.53;86.36;100847.30;106168;1286;22540;-82
2024/01/24 00:27:20;;;;;;;12.90;6.20;;;;;;;2.54;86.36;100843.69;105974;1287;24209;-82
2024/01/24 00:29:48;;;;;;;17.00;6.20;;;;;;;2.57;86.39;100831.77;106298;1287;24390;-84
2024/01/24 00:32:16;;;;;;;16.50;6.30;;;;;;;2.60;86.23;100838.66;106270;1287;22543;-82
2024/01/24 00:34:43;;;;;;;21.30;6.80;;;;;;;2.61;86.11;100840.94;106891;1281;22621;-82
2024/01/24 00:37:11;;;;;;;16.50;6.50;;;;;;;2.59;86.10;100837.08;106543;1280;22541;-83
2024/01/24 00:39:38;;;;;;;14.20;6.90;;;;;;;2.59;86.18;100840.55;106656;1277;22810;-83
2024/01/24 00:42:06;;;;;;;16.80;7.10;;;;;;;2.61;86.21;100837.64;106470;1281;22538;-85
2024/01/24 00:44:33;;;;;;;13.40;6.60;;;;;;;2.62;86.00;100831.23;106371;1281;22565;-84
2024/01/24 00:47:00;;;;;;;17.90;7.30;;;;;;;2.62;86.10;100830.02;106808;1274;22539;-82
2024/01/24 00:49:28;;;;;;;21.50;7.20;;;;;;;2.61;85.95;100827.20;107013;1274;25239;-83
2024/01/24 00:51:55;;;;;;;14.10;6.00;;;;;;;2.57;85.98;100831.80;107315;1274;22549;-81
2024/01/24 00:54:24;;;;;;;17.70;7.90;;;;;;;2.55;86.01;100833.80;107042;1273;25239;-84
2024/01/24 00:56:51;;;;;;;14.80;6.60;;;;;;;2.56;86.08;100835.56;107154;1274;25250;-81
2024/01/24 00:59:19;;;;;;;18.50;7.30;;;;;;;2.60;86.12;100837.98;107246;1270;22527;-82
2024/01/24 01:01:47;;;;;;;33.50;8.40;;;;;;;2.63;86.07;100827.63;107087;1274;24262;-81
2024/01/24 01:04:15;;;;;;;17.00;7.30;;;;;;;2.65;85.98;100811.16;106887;1274;22524;-83
2024/01/24 01:06:44;;;;;;;16.70;6.90;;;;;;;2.66;85.91;100798.65;106885;1274;22527;-84
2024/01/24 01:09:12;;;;;;;22.30;7.00;;;;;;;2.66;85.69;100800.92;106450;1280;25246;-82
2024/01/24 01:11:39;;;;;;;18.50;7.40;;;;;;;2.65;85.74;100796.21;106461;1280;22797;-80
2024/01/24 01:14:08;;;;;;;18.90;7.20;;;;;;;2.65;85.71;100784.17;106480;1281;24250;-84
2024/01/24 01:16:35;;;;;;;13.40;6.20;;;;;;;2.64;85.75;100775.98;106706;1281;22821;-84
2024/01/24 01:19:03;;;;;;;16.50;7.40;;;;;;;2.67;85.81;100769.65;106532;1280;25331;-83
2024/01/24 01:21:31;;;;;;;11.90;6.40;;;;;;;2.70;85.69;100765.73;106288;1285;22543;-84
2024/01/24 01:23:59;;;;;;;17.60;6.40;;;;;;;2.70;85.57;100747.46;106292;1283;22602;-85
2024/01/24 01:26:26;;;;;;;14.60;6.30;;;;;;;2.71;85.50;100736.35;106472;1280;22547;-83
2024/01/24 01:28:53;;;;;;;15.80;7.10;;;;;;;2.73;85.49;100729.10;106895;1280;25803;-83
2024/01/24 01:31:20;;;;;;;17.30;6.80;;;;;;;2.75;85.40;100712.48;106637;1277;22666;-85
2024/01/24 01:33:47;;;;;;;14.60;6.80;;;;;;;2.76;85.22;100706.92;106642;1283;22540;-82
2024/01/24 01:36:15;;;;;;;13.70;6.60;;;;;;;2.78;85.27;100690.11;106939;1279;22600;-83
2024/01/24 01:38:50;;;;;;;12.30;6.10;;;;;;;2.80;85.08;100681.30;107847;1283;25211;-83
2024/01/24 01:41:17;;;;;;;14.80;6.70;;;;;;;2.81;85.02;100675.60;107757;1280;22544;-82
2024/01/24 01:43:45;;;;;;;16.60;6.90;;;;;;;2.84;84.88;100679.52;106968;1283;25445;-84
2024/01/24 01:46:20;;;;;;;17.00;6.40;;;;;;;2.86;84.71;100677.63;107153;1278;22573;-83
2024/01/24 01:48:49;;;;;;;14.60;6.60;;;;;;;2.87;84.50;100663.73;107067;1278;22519;-83
2024/01/24 01:51:19;;;;;;;9.80;4.80;;;;;;;2.89;84.57;100670.56;107466;1274;25433;-83
2024/01/24 01:53:48;;;;;;;17.80;6.30;;;;;;;2.92;84.40;100670.50;107666;1274;24399;-84
2024/01/24 01:56:19;;;;;;;17.70;6.70;;;;;;;2.97;84.18;100659.14;107528;1274;22492;-82
2024/01/24 01:58:48;;;;;;;18.70;7.10;;;;;;;2.98;84.08;100665.77;108603;1273;23348;-82
2024/01/24 02:01:16;;;;;;;12.30;6.30;;;;;;;3.01;83.94;100649.32;108581;1274;22621;-83
2024/01/24 02:03:46;;;;;;;18.30;6.20;;;;;;;3.03;83.65;100638.41;109163;1274;22536;-82
2024/01/24 02:06:14;;;;;;;15.40;6.50;;;;;;;3.06;83.61;100634.65;109426;1274;25464;-84
2024/01/24 02:08:43;;;;;;;15.40;7.00;;;;;;;3.11;83.41;100636.16;109806;1273;22928;-84
2024/01/24 02:11:11;;;;;;;12.30;6.20;;;;;;;3.12;83.17;100640.91;109853;1273;22566;-83
2024/01/24 02:13:39;;;;;;;13.30;5.80;;;;;;;3.11;82.86;100636.70;110237;1274;22813;-87
2024/01/24 02:16:07;;;;;;;14.80;6.10;;;;;;;3.15;82.86;100634.86;110310;1274;22546;-84
2024/01/24 02:18:39;;;;;;;16.00;7.40;;;;;;;3.18;82.68;100640.17;110239;1274;23855;-86
2024/01/24 02:21:07;;;;;;;18.60;7.10;;;;;;;3.20;82.63;100634.34;110066;1274;22554;-81
2024/01/24 02:23:35;;;;;;;17.40;7.20;;;;;;;3.22;82.44;100618.71;110002;1274;22496;-83
2024/01/24 02:26:04;;;;;;;16.30;6.50;;;;;;;3.23;82.22;100607.58;108611;1271;25258;-84
2024/01/24 02:28:31;;;;;;;12.90;6.40;;;;;;;3.26;82.27;100606.25;107770;1274;23920;-83
2024/01/24 02:30:59;;;;;;;11.90;6.30;;;;;;;3.25;81.94;100601.18;107662;1275;25944;-83
2024/01/24 02:33:27;;;;;;;18.70;6.30;;;;;;;3.23;81.87;100580.95;107479;1275;22603;-82
2024/01/24 02:35:54;;;;;;;15.40;6.10;;;;;;;3.19;81.77;100570.59;108345;1275;22539;-82
2024/01/24 02:38:23;;;;;;;16.00;6.00;;;;;;;3.17;81.84;100561.48;110066;1270;22550;-82
2024/01/24 02:40:50;;;;;;;16.10;6.10;;;;;;;3.15;81.84;100554.64;110352;1274;22586;-84
2024/01/24 02:43:18;;;;;;;14.50;6.30;;;;;;;3.15;81.96;100553.09;110027;1278;22548;-82
2024/01/24 02:45:48;;;;;;;12.60;5.60;;;;;;;3.17;81.99;100548.98;109987;1280;22186;-83
2024/01/24 02:48:15;;;;;;;17.80;5.70;;;;;;;3.22;81.84;100547.67;109490;1280;25416;-83
2024/01/24 02:50:44;;;;;;;12.10;5.80;;;;;;;3.26;81.60;100543.22;108747;1280;23372;-83
2024/01/24 02:53:22;;;;;;;13.60;5.50;;;;;;;3.27;81.54;100542.23;108628;1287;22930;-85
2024/01/24 02:55:53;;;;;;;12.70;5.30;;;;;;;3.27;81.18;100535.79;108734;1287;22621;-84
2024/01/24 02:58:21;;;;;;;16.10;5.60;;;;;;;3.23;80.89;100528.04;108238;1290;22577;-85
2024/01/24 03:00:56;;;;;;;15.60;5.50;;;;;;;3.20;80.72;100527.27;106566;1287;22540;-83
2024/01/24 03:03:46;;;;;;;15.90;5.90;;;;;;;3.21;80.88;100529.39;106271;1286;24292;-84
2024/01/24 03:06:34;;;;;;;16.00;6.40;;;;;;;3.22;81.08;100512.52;107686;1287;22595;-83
2024/01/24 03:09:07;;;;;;;14.30;6.20;;;;;;;3.21;80.68;100503.29;108772;1286;22564;-83
2024/01/24 03:11:34;;;;;;;13.70;6.30;;;;;;;3.15;80.62;100499.84;108625;1279;22527;-83
2024/01/24 03:14:04;;;;;;;12.10;5.60;;;;;;;3.12;80.65;100486.18;108849;1279;22525;-83
2024/01/24 03:16:32;;;;;;;13.40;6.10;;;;;;;3.13;80.70;100468.45;108838;1273;22542;-82
2024/01/24 03:18:59;;;;;;;14.70;5.80;;;;;;;3.12;80.50;100454.51;107734;1273;22651;-83
2024/01/24 03:21:27;;;;;;;16.30;5.90;;;;;;;3.05;80.24;100440.11;107234;1273;25366;-83
2024/01/24 03:23:55;;;;;;;13.20;6.30;;;;;;;3.00;80.41;100438.41;107289;1273;26593;-83
2024/01/24 03:26:22;;;;;;;12.90;5.80;;;;;;;2.98;80.53;100435.57;106994;1273;24206;-83
2024/01/24 03:28:49;;;;;;;15.60;6.60;;;;;;;2.92;80.25;100438.94;107192;1273;22634;-83
2024/01/24 03:31:18;;;;;;;11.70;5.90;;;;;;;2.87;80.39;100437.95;106713;1277;22547;-82
2024/01/24 03:33:46;;;;;;;15.00;6.40;;;;;;;2.82;80.41;100425.50;106951;1274;22529;-83
2024/01/24 03:36:13;;;;;;;14.10;6.00;;;;;;;2.80;80.57;100420.73;106377;1281;22755;-82
2024/01/24 03:38:40;;;;;;;15.20;6.50;;;;;;;2.77;80.46;100431.10;106290;1284;24239;-81
2024/01/24 03:41:08;;;;;;;12.50;5.80;;;;;;;2.77;80.44;100425.90;105955;1289;22549;-82
2024/01/24 03:43:41;;;;;;;13.10;6.30;;;;;;;2.78;80.30;100434.42;105872;1289;22596;-83
2024/01/24 03:46:08;;;;;;;11.50;5.20;;;;;;;2.76;80.12;100427.77;106047;1289;22533;-82
2024/01/24 03:48:37;;;;;;;14.50;6.30;;;;;;;2.75;80.18;100418.36;106292;1289;22732;-82
2024/01/24 03:51:08;;;;;;;11.10;5.80;;;;;;;2.75;80.28;100408.63;106157;1289;26635;-82
2024/01/24 03:53:36;;;;;;;10.50;5.80;;;;;;;2.76;80.13;100410.38;106134;1284;25293;-81
2024/01/24 03:56:05;;;;;;;15.80;6.00;;;;;;;2.77;80.06;100406.58;106582;1278;25241;-84
2024/01/24 03:58:34;;;;;;;9.60;4.90;;;;;;;2.78;79.83;100385.58;107055;1275;24206;-83
2024/01/24 04:01:01;;;;;;;17.70;6.50;;;;;;;2.78;79.60;100376.35;106948;1253;387958;-82
2024/01/24 04:03:29;;;;;;;12.80;5.80;;;;;;;2.77;79.49;100378.41;107115;1270;22541;-83
2024/01/24 04:05:56;;;;;;;11.00;5.20;;;;;;;2.79;79.55;100375.67;106948;1274;22549;-83
2024/01/24 04:08:25;;;;;;;11.10;5.40;;;;;;;2.81;79.56;100373.98;106898;1273;25388;-84
2024/01/24 04:10:52;;;;;;;13.40;6.20;;;;;;;2.80;79.14;100359.16;107011;1274;22842;-83
2024/01/24 04:13:19;;;;;;;14.40;5.60;;;;;;;2.80;79.20;100354.66;107189;1258;25321;-83
2024/01/24 04:15:48;;;;;;;12.70;6.10;;;;;;;2.83;78.91;100346.71;106990;1274;25293;-85
2024/01/24 04:18:16;;;;;;;16.30;6.40;;;;;;;2.83;78.67;100336.80;106747;1274;24278;-82
2024/01/24 04:20:43;;;;;;;15.70;5.90;;;;;;;2.82;78.74;100327.21;107007;1270;26572;-83
2024/01/24 04:23:11;;;;;;;10.80;5.80;;;;;;;2.82;78.55;100312.42;107042;1274;24308;-82
2024/01/24 04:25:39;;;;;;;13.20;5.60;;;;;;;2.80;78.32;100306.14;107033;1274;22526;-84
2024/01/24 04:28:06;;;;;;;14.00;5.50;;;;;;;2.80;78.45;100304.21;107005;1274;25492;-82
2024/01/24 04:30:34;;;;;;;12.20;5.50;;;;;;;2.81;78.20;100287.89;106947;1268;25253;-82
2024/01/24 04:33:02;;;;;;;16.50;6.20;;;;;;;2.81;78.01;100276.59;107123;1274;22524;-82
2024/01/24 04:35:30;;;;;;;11.80;5.90;;;;;;;2.84;78.25;100269.16;106908;1270;22531;-82
2024/01/24 04:37:57;;;;;;;11.40;6.00;;;;;;;2.85;78.05;100266.41;106553;1280;25451;-83
2024/01/24 04:40:26;;;;;;;14.70;5.60;;;;;;;2.87;77.98;100267.99;106644;1274;25284;-83
2024/01/24 04:42:54;;;;;;;12.70;5.90;;;;;;;2.87;77.53;100257.57;106570;1277;25096;-84
2024/01/24 04:45:21;;;;;;;15.50;5.90;;;;;;;2.89;77.59;100252.20;106530;1283;24195;-84
2024/01/24 04:47:49;;;;;;;9.60;5.50;;;;;;;2.93;77.75;100257.86;106411;1284;24276;-86
2024/01/24 04:50:17;;;;;;;12.30;5.50;;;;;;;2.98;77.69;100248.91;106464;1284;22508;-84
2024/01/24 04:52:45;;;;;;;13.80;5.50;;;;;;;3.01;77.49;100235.23;106331;1284;25285;-85
2024/01/24 04:55:13;;;;;;;12.60;5.60;;;;;;;3.03;77.46;100228.47;106257;1284;25401;-85
2024/01/24 04:57:45;;;;;;;10.50;5.50;;;;;;;3.05;77.48;100219.29;105765;1289;22964;-84
2024/01/24 05:00:33;;;;;;;9.60;5.60;;;;;;;3.05;77.20;100214.09;105487;1292;22588;-85
2024/01/24 05:03:00;;;;;;;14.20;5.90;;;;;;;3.05;77.09;100201.02;106328;1288;22618;-84
2024/01/24 05:05:27;;;;;;;13.00;5.30;;;;;;;3.06;77.10;100188.69;106419;1287;22543;-83
2024/01/24 05:07:57;;;;;;;10.80;5.80;;;;;;;3.08;77.03;100181.77;105963;1292;22601;-84
2024/01/24 05:10:25;;;;;;;11.40;5.90;;;;;;;3.09;76.62;100180.92;105373;1298;22572;-84
2024/01/24 05:12:52;;;;;;;11.10;5.50;;;;;;;3.06;76.47;100177.55;105241;1295;22555;-85
2024/01/24 05:15:21;;;;;;;12.30;6.10;;;;;;;3.04;76.35;100177.69;105570;1291;22854;-82
2024/01/24 05:17:48;;;;;;;11.60;5.90;;;;;;;3.02;76.16;100176.43;106657;1288;24122;-81
2024/01/24 05:20:17;;;;;;;13.30;5.20;;;;;;;2.97;76.25;100172.16;106642;1287;23294;-85
2024/01/24 05:22:48;;;;;;;13.50;5.60;;;;;;;2.98;76.33;100161.05;106869;1287;22786;-84
2024/01/24 05:25:16;;;;;;;12.60;5.90;;;;;;;2.99;76.35;100154.83;107295;1282;25942;-86
2024/01/24 05:27:44;;;;;;;10.70;6.00;;;;;;;3.00;76.15;100152.39;106581;1278;22626;-82
2024/01/24 05:30:11;;;;;;;11.30;5.90;;;;;;;2.99;76.03;100150.80;106583;1283;25860;-81
2024/01/24 05:32:57;;;;;;;12.80;6.00;;;;;;;2.98;75.98;100132.00;106460;1281;25348;-86
2024/01/24 05:35:24;;;;;;;13.50;5.80;;;;;;;2.96;75.98;100126.59;106508;1277;25596;-81
2024/01/24 05:37:52;;;;;;;11.30;5.80;;;;;;;2.97;75.92;100113.02;106251;1283;22553;-80
2024/01/24 05:40:19;;;;;;;11.30;5.90;;;;;;;2.98;75.79;100113.38;106324;1280;25261;-81
2024/01/24 05:42:46;;;;;;;11.20;6.10;;;;;;;2.96;75.69;100101.70;106467;1280;22569;-82
2024/01/24 05:45:15;;;;;;;16.90;7.00;;;;;;;2.98;75.67;100083.09;106580;1281;25356;-83
2024/01/24 05:47:43;;;;;;;15.10;6.50;;;;;;;2.95;75.61;100068.27;106178;1285;22627;-83
2024/01/24 05:50:12;;;;;;;14.80;5.90;;;;;;;2.93;75.97;100065.11;106887;1284;25934;-82
2024/01/24 05:52:42;;;;;;;13.10;6.30;;;;;;;2.96;75.96;100053.52;106911;1283;25964;-82
2024/01/24 05:55:11;;;;;;;10.50;6.40;;;;;;;3.01;75.91;100047.50;106553;1270;23901;-83
2024/01/24 05:57:40;;;;;;;12.30;6.30;;;;;;;3.01;75.66;100037.59;106345;1284;22686;-83
2024/01/24 06:00:14;;;;;;;14.80;7.40;;;;;;;2.98;75.32;100042.41;106581;1280;25432;-82
2024/01/24 06:02:47;;;;;;;14.30;6.60;;;;;;;2.97;75.70;100030.21;106319;1284;22545;-86
2024/01/24 06:05:15;;;;;;;12.80;7.10;;;;;;;2.99;75.85;100048.67;106355;1278;25326;-82
2024/01/24 06:07:44;;;;;;;12.90;6.80;;;;;;;2.99;75.74;100043.30;106505;1278;22660;-85
2024/01/24 06:10:11;;;;;;;13.90;7.00;;;;;;;2.99;75.80;100047.98;106569;1278;22538;-83
2024/01/24 06:12:40;;;;;;;11.70;6.40;;;;;;;3.00;75.56;100038.63;106435;1279;24284;-83
2024/01/24 06:15:08;;;;;;;13.20;7.10;;;;;;;3.00;75.79;100032.17;106297;1281;23395;-84
2024/01/24 06:17:35;;;;;;;17.00;7.20;;;;;;;3.03;75.98;100032.05;106400;1282;22803;-85
2024/01/24 06:20:04;;;;;;;15.40;7.70;;;;;;;3.02;75.92;100021.60;106650;1260;23752;-83
2024/01/24 06:22:32;;;;;;;13.00;6.90;;;;;;;2.96;76.30;100020.11;107118;1281;22556;-83
2024/01/24 06:25:02;;;;;;;14.40;7.00;;;;;;;2.91;77.05;100013.26;106602;1270;25527;-84
2024/01/24 06:27:36;;;;;;;13.00;6.40;;;;;;;2.82;77.82;100012.77;106536;1282;26628;-86
2024/01/24 06:30:05;;;;;;;14.90;7.70;;;;;;;2.71;78.81;100004.56;106621;1280;22525;-81
2024/01/24 06:32:49;;;;;;;12.80;6.70;;;;;;;2.63;79.68;99994.36;106601;1276;22638;-82
2024/01/24 06:35:18;;;;;;;14.70;6.10;;;;;;;2.59;80.17;99993.42;107046;1276;24292;-83
2024/01/24 06:37:47;;;;;;;14.50;6.90;;;;;;;2.51;81.05;99983.55;106485;1282;24010;-83
2024/01/24 06:40:15;;;;;;;15.40;6.60;;;;;;;2.43;81.86;99983.59;106758;1282;22593;-82
2024/01/24 06:42:42;;;;;;;14.80;7.50;;;;;;;2.36;82.52;99973.39;106035;1287;22564;-83
2024/01/24 06:45:10;;;;;;;12.90;6.80;;;;;;;2.30;82.80;99964.93;106237;1288;22555;-81
2024/01/24 06:47:39;;;;;;;17.10;7.20;;;;;;;2.23;83.15;99959.60;106307;1288;24166;-83
2024/01/24 06:50:08;;;;;;;12.60;6.60;;;;;;;2.20;83.55;99950.70;106194;1288;23054;-83
2024/01/24 06:52:36;;;;;;;15.70;7.00;;;;;;;2.19;83.62;99939.20;106705;1288;22542;-83
2024/01/24 06:55:04;;;;;;;13.70;6.50;;;;;;;2.17;83.84;99931.35;107654;1281;22607;-83
2024/01/24 06:57:31;;;;;;;12.80;7.20;;;;;;;2.08;84.08;99918.86;107910;1281;22743;-82
2024/01/24 06:59:57;;;;;;;13.50;7.10;;;;;;;2.06;84.50;99905.45;107322;1276;22557;-83
2024/01/24 07:02:25;;;;;;;13.90;6.80;;;;;;;2.04;84.61;99889.27;106935;1278;22660;-85
2024/01/24 07:04:55;;;;;;;15.70;7.30;;;;;;;1.96;84.93;99863.76;106194;1285;24223;-82
2024/01/24 07:07:25;;;;;;;16.00;7.60;;;;;;;1.94;85.48;99836.81;106268;1283;22673;-82
2024/01/24 07:09:52;;;;;;;16.10;7.50;;;;;;;1.93;85.72;99819.08;106388;1283;22581;-81
2024/01/24 07:12:22;;;;;;;15.30;7.70;;;;;;;1.92;86.02;99798.41;106178;1286;22543;-85
2024/01/24 07:14:49;;;;;;;17.00;8.30;;;;;;;1.95;86.26;99784.40;106182;1283;22592;-83
2024/01/24 07:17:21;;;;;;;15.60;7.80;;;;;;;1.94;86.59;99775.34;106403;1286;22553;-83
2024/01/24 07:19:50;;;;;;;14.10;6.90;;;;;;;1.95;86.93;99765.97;106428;1282;24089;-81
2024/01/24 07:22:19;;;;;;;15.50;7.00;;;;;;;1.96;87.17;99762.17;106695;1280;25316;-82
2024/01/24 07:24:47;;;;;;;13.30;7.00;;;;;;;1.99;87.46;99748.48;106491;1279;25291;-82
2024/01/24 07:27:18;;;;;;;11.00;6.60;;;;;;;2.04;87.58;99736.58;106679;1279;22533;-81
2024/01/24 07:29:45;;;;;;;12.80;6.50;;;;;;;2.06;88.00;99735.58;106655;1275;22531;-80
2024/01/24 07:32:12;;;;;;;10.30;5.70;;;;;;;2.10;88.10;99734.77;106626;1276;25641;-82
2024/01/24 07:34:40;;;;;;;10.80;6.10;;;;;;;2.13;88.19;99722.82;106545;1279;24851;-81
2024/01/24 07:37:08;;;;;;;10.70;5.70;;;;;;;2.15;88.26;99722.16;106431;1279;25438;-84
2024/01/24 07:39:40;;;;;;;12.20;6.00;;;;;;;2.18;88.37;99728.45;106667;1276;25065;-85
2024/01/24 07:42:08;;;;;;;12.20;7.30;;;;;;;2.19;88.65;99725.33;106947;1274;24280;-82
2024/01/24 07:44:38;;;;;;;10.60;5.90;;;;;;;2.16;88.98;99708.45;106970;1276;25417;-84
2024/01/24 07:47:06;;;;;;;10.80;5.60;;;;;;;2.12;89.27;99703.34;106491;1280;24287;-87
2024/01/24 07:49:34;;;;;;;12.80;5.70;;;;;;;2.15;89.40;99694.88;106551;1280;22618;-83
2024/01/24 07:52:07;;;;;;;12.20;6.70;;;;;;;2.18;89.67;99686.93;106669;1262;24244;-85
2024/01/24 07:54:34;;;;;;;12.40;5.80;;;;;;;2.18;90.03;99679.64;106605;1280;25079;-83
2024/01/24 07:57:03;;;;;;;10.60;5.70;;;;;;;2.19;90.27;99663.14;106236;1284;22559;-84
2024/01/24 07:59:36;;;;;;;10.10;5.10;;;;;;;2.22;90.37;99652.77;106359;1284;22602;-83
2024/01/24 08:02:04;;;;;;;8.90;5.40;;;;;;;2.26;90.64;99637.52;105727;1292;25436;-82
2024/01/24 08:04:33;;;;;;;11.20;6.00;;;;;;;2.28;90.77;99638.57;105873;1287;22528;-82
2024/01/24 08:07:01;;;;;;;11.20;5.70;;;;;;;2.29;90.86;99630.26;105974;1287;25421;-84
2024/01/24 08:09:32;;;;;;;11.50;4.70;;;;;;;2.30;91.15;99598.83;106085;1287;22548;-84
2024/01/24 08:12:00;;;;;;;10.30;4.70;;;;;;;2.33;91.22;99591.21;106164;1285;24075;-83
2024/01/24 08:14:28;;;;;;;13.20;5.00;;;;;;;2.38;91.51;99591.27;106686;1280;22798;-82
2024/01/24 08:17:19;;;;;;;9.60;5.30;;;;;;;2.39;91.56;99589.88;106619;1282;22543;-83
2024/01/24 08:19:46;;;;;;;12.70;4.80;;;;;;;2.38;91.63;99584.83;107200;1276;23959;-83
2024/01/24 08:22:16;;;;;;;6.60;4.40;;;;;;;2.38;91.88;99581.02;108449;1276;22492;-83
2024/01/24 08:24:44;;;;;;;11.70;5.40;;;;;;;2.41;92.07;99586.26;108167;1280;22533;-83
2024/01/24 08:27:12;;;;;;;11.60;5.50;;;;;;;2.42;92.14;99553.23;107788;1280;22523;-83
2024/01/24 08:29:40;;;;;;;9.00;4.60;;;;;;;2.39;92.54;99568.34;107504;1280;22666;-83
2024/01/24 08:32:09;;;;;;;9.80;4.60;;;;;;;2.35;92.79;99548.84;107476;1286;22537;-82
2024/01/24 08:34:37;;;;;;;6.30;4.30;;;;;;;2.36;92.99;99536.85;107007;1286;25526;-83
2024/01/24 08:37:08;;;;;;;8.10;4.00;;;;;;;2.40;93.14;99547.14;106870;1286;22543;-84
2024/01/24 08:39:36;;;;;;;8.10;4.50;;;;;;;2.42;93.31;99534.66;107164;1280;22542;-82
2024/01/24 08:42:04;;;;;;;10.50;4.40;;;;;;;2.45;93.30;99530.51;107998;1281;22251;-82
2024/01/24 08:44:31;;;;;;;8.20;4.10;;;;;;;2.47;93.43;99532.63;108893;1281;22549;-82
2024/01/24 08:46:58;;;;;;;9.80;5.10;;;;;;;2.53;93.59;99516.50;108302;1281;22554;-86
2024/01/24 08:49:25;;;;;;;9.70;4.70;;;;;;;2.57;93.62;99513.08;106493;1285;22541;-87
2024/01/24 08:51:57;;;;;;;9.50;4.80;;;;;;;2.59;93.79;99517.79;106167;1289;22601;-86
2024/01/24 08:54:24;;;;;;;9.20;4.70;;;;;;;2.61;93.86;99504.07;106546;1289;22512;-83
2024/01/24 08:56:52;;;;;;;8.00;4.10;;;;;;;2.65;94.24;99496.27;107111;1291;22561;-83
2024/01/24 08:59:19;;;;;;;7.30;3.70;;;;;;;2.65;94.22;99481.67;107173;1288;22542;-84
2024/01/24 09:01:47;;;;;;;6.50;3.80;;;;;;;2.67;94.38;99488.48;107018;1291;22504;-83
2024/01/24 09:04:15;;;;;;;8.80;4.60;;;;;;;2.69;94.71;99486.75;106761;1291;23927;-82
2024/01/24 09:06:44;;;;;;;6.70;3.60;;;;;;;2.74;94.77;99488.35;106932;1291;22653;-82
2024/01/24 09:09:13;;;;;;;7.00;3.90;;;;;;;2.78;95.01;99478.65;107083;1285;22863;-83
2024/01/24 09:11:41;;;;;;;9.70;3.70;;;;;;;2.81;94.97;99474.52;106830;1285;24091;-83
2024/01/24 09:14:25;;;;;;;8.20;3.90;;;;;;;2.81;95.43;99470.52;106638;1280;25454;-84
2024/01/24 09:16:52;;;;;;;4.40;3.20;;;;;;;2.81;95.73;99470.67;106948;1280;26205;-83
2024/01/24 09:19:21;;;;;;;5.70;2.90;;;;;;;2.83;96.22;99464.44;107232;1261;23233;-84
2024/01/24 09:21:49;;;;;;;4.70;3.30;;;;;;;2.85;96.37;99457.50;107794;1274;22542;-83
2024/01/24 09:24:16;;;;;;;7.90;3.90;;;;;;;2.87;96.81;99449.85;108024;1274;22589;-86
2024/01/24 09:26:44;;;;;;;5.70;3.70;;;;;;;2.90;96.98;99443.27;107879;1275;22530;-82
2024/01/24 09:29:13;;;;;;;7.30;3.60;;;;;;;2.91;97.27;99443.98;108724;1275;22492;-84
2024/01/24 09:31:45;;;;;;;4.50;3.00;;;;;;;2.95;97.45;99445.04;108673;1274;22526;-84
2024/01/24 09:34:20;;;;;;;5.20;3.00;;;;;;;3.00;97.37;99437.06;108283;1273;22725;-82
2024/01/24 09:36:48;;;;;;;6.90;3.20;;;;;;;3.04;97.62;99423.53;108003;1279;22573;-83
2024/01/24 09:39:16;;;;;;;4.30;2.80;;;;;;;3.08;97.53;99409.13;107883;1279;22565;-83
2024/01/24 09:41:45;;;;;;;6.00;3.60;;;;;;;3.13;97.85;99396.95;108043;1279;22482;-82
2024/01/24 09:44:16;;;;;;;4.60;2.70;;;;;;;3.16;98.09;99397.48;107829;1272;23281;-84
2024/01/24 09:46:44;;;;;;;4.70;2.90;;;;;;;3.17;98.24;99395.58;107775;1279;22573;-84
2024/01/24 09:49:14;;;;;;;6.50;3.00;;;;;;;3.21;98.49;99392.99;107779;1276;23180;-85
2024/01/24 09:51:44;;;;;;;5.30;3.00;;;;;;;3.27;98.56;99376.67;107678;1259;22534;-83
2024/01/24 09:54:12;;;;;;;5.00;2.70;;;;;;;3.31;98.60;99372.16;107467;1274;24202;-82
2024/01/24 09:56:41;;;;;;;4.20;2.70;;;;;;;3.34;98.67;99366.94;107415;1274;22543;-83
2024/01/24 09:59:13;;;;;;;3.80;2.70;;;;;;;3.39;98.88;99357.91;107133;1275;22546;-83
2024/01/24 10:01:41;;;;;;;4.60;2.90;;;;;;;3.44;99.25;99369.95;107196;1275;22539;-85
2024/01/24 10:04:14;;;;;;;3.10;2.60;;;;;;;3.50;99.44;99370.66;106763;1278;22533;-85
2024/01/24 10:06:43;;;;;;;2.50;2.20;;;;;;;3.55;99.56;99372.42;106805;1279;23921;-84
2024/01/24 10:09:11;;;;;;;3.20;2.40;;;;;;;3.59;99.66;99373.48;106456;1283;22540;-84
2024/01/24 10:11:39;;;;;;;6.30;3.60;;;;;;;3.64;99.95;99360.26;106452;1284;25253;-83
2024/01/24 10:14:09;;;;;;;6.60;2.60;;;;;;;3.68;100.00;99359.58;106187;1287;22820;-83
2024/01/24 10:16:37;;;;;;;2.70;2.20;;;;;;;3.72;100.00;99356.97;106325;1288;25361;-83
2024/01/24 10:19:09;;;;;;;3.40;2.40;;;;;;;3.77;100.00;99351.23;106407;1287;22642;-85
2024/01/24 10:21:36;;;;;;;2.90;2.30;;;;;;;3.79;100.00;99344.62;106261;1285;22816;-84
2024/01/24 10:24:04;;;;;;;3.60;2.70;;;;;;;3.82;100.00;99333.81;106530;1285;25047;-83
2024/01/24 10:26:33;;;;;;;3.90;2.40;;;;;;;3.82;100.00;99331.38;106586;1280;25310;-84
2024/01/24 10:29:01;;;;;;;2.80;2.20;;;;;;;3.86;100.00;99331.05;106670;1275;22475;-85
2024/01/24 10:31:30;;;;;;;3.00;2.10;;;;;;;3.89;100.00;99329.13;107107;1274;22802;-84
2024/01/24 10:33:57;;;;;;;2.60;2.10;;;;;;;3.93;100.00;99321.65;107056;1274;22796;-86
2024/01/24 10:36:27;;;;;;;2.00;1.80;;;;;;;3.98;100.00;99317.10;107102;1268;22937;-83
2024/01/24 10:39:08;;;;;;;2.90;2.20;;;;;;;4.02;100.00;99311.19;106686;1275;22622;-83
2024/01/24 10:41:40;;;;;;;2.80;2.40;;;;;;;4.05;100.00;99311.02;107085;1275;25278;-87
2024/01/24 10:44:09;;;;;;;2.10;1.90;;;;;;;4.06;100.00;99306.67;107104;1275;25274;-84
2024/01/24 10:46:39;;;;;;;3.20;2.30;;;;;;;4.10;100.00;99300.58;107129;1275;22561;-87
2024/01/24 10:49:12;;;;;;;2.30;2.00;;;;;;;4.10;100.00;99289.77;106976;1274;22543;-83
2024/01/24 10:51:42;;;;;;;2.70;2.40;;;;;;;4.13;100.00;99276.35;107154;1276;22579;-85
2024/01/24 10:54:15;;;;;;;2.70;2.30;;;;;;;4.17;100.00;99270.77;106642;1278;22679;-84
2024/01/24 10:57:06;;;;;;;2.80;2.50;;;;;;;4.20;100.00;99265.89;106921;1276;22664;-83
2024/01/24 10:59:38;;;;;;;3.20;2.50;;;;;;;4.25;100.00;99256.46;106741;1276;25355;-84
2024/01/24 11:02:09;;;;;;;3.30;2.50;;;;;;;4.31;100.00;99254.19;106692;1278;24210;-84
2024/01/24 11:04:42;;;;;;;4.40;2.80;;;;;;;4.35;100.00;99249.81;106370;1284;22536;-82
2024/01/24 11:07:16;;;;;;;2.90;2.50;;;;;;;4.37;100.00;99242.33;106463;1284;24409;-83
2024/01/24 11:09:58;;;;;;;3.40;2.50;;;;;;;4.39;100.00;99237.42;106467;1284;22547;-84
2024/01/24 11:12:28;;;;;;;4.50;2.90;;;;;;;4.41;100.00;99248.58;106371;1284;22543;-83
2024/01/24 11:15:06;;;;;;;3.60;3.00;;;;;;;4.45;100.00;99241.95;106065;1290;22569;-84
2024/01/24 11:17:33;;;;;;;3.40;2.70;;;;;;;4.50;100.00;99249.09;106118;1286;23070;-85
2024/01/24 11:20:07;;;;;;;2.80;2.40;;;;;;;4.55;100.00;99237.57;106339;1282;24217;-84
2024/01/24 11:22:35;;;;;;;4.10;2.60;;;;;;;4.61;100.00;99244.70;106713;1281;22652;-85
2024/01/24 11:25:04;;;;;;;4.20;2.90;;;;;;;4.62;100.00;99237.72;106494;1281;24253;-85
2024/01/24 11:27:38;;;;;;;3.10;2.20;;;;;;;4.64;100.00;99244.69;106543;1281;24269;-84
2024/01/24 11:30:46;;;;;;;3.30;2.60;;;;;;;4.69;100.00;99242.74;106541;1267;24281;-83